createdAt,value
2019-03-15T00:02:26.933Z,4.68
2019-03-15T00:04:55.665Z,4.58
2019-03-15T00:07:24.350Z,4.51
2019-03-15T00:09:52.933Z,4.46
2019-03-15T00:12:21.696Z,4.42
2019-03-15T00:14:50.372Z,4.41
2019-03-15T00:17:19.036Z,4.38
2019-03-15T00:19:47.596Z,4.36
2019-03-15T00:22:16.246Z,4.36
2019-03-15T00:24:45.038Z,4.35
2019-03-15T00:27:13.782Z,4.30
2019-03-15T00:29:42.505Z,4.30
2019-03-15T00:32:50.985Z,4.28
2019-03-15T00:35:19.676Z,4.30
2019-03-15T00:37:48.291Z,4.33
2019-03-15T00:40:16.976Z,4.34
2019-03-15T00:42:45.699Z,4.31
2019-03-15T00:45:14.349Z,4.33
2019-03-15T00:47:43.040Z,4.34
2019-03-15T00:50:51.542Z,4.35
2019-03-15T00:53:20.242Z,4.39
2019-03-15T00:56:08.124Z,4.48
2019-03-15T00:58:36.847Z,4.50
2019-03-15T01:01:24.608Z,4.52
2019-03-15T01:03:53.314Z,4.53
2019-03-15T01:06:41.173Z,4.51
2019-03-15T01:09:09.908Z,4.50
2019-03-15T01:11:38.569Z,4.47
2019-03-15T01:14:07.259Z,4.44
2019-03-15T01:16:35.909Z,4.48
2019-03-15T01:19:23.937Z,4.46
2019-03-15T01:21:52.569Z,4.49
2019-03-15T01:24:40.430Z,4.46
2019-03-15T01:27:09.119Z,4.42
2019-03-15T01:29:37.777Z,4.36
2019-03-15T01:32:06.484Z,4.36
2019-03-15T01:34:35.111Z,4.29
2019-03-15T01:37:03.802Z,4.22
2019-03-15T01:39:51.630Z,4.20
2019-03-15T01:42:20.288Z,4.20
2019-03-15T01:44:48.911Z,4.22
2019-03-15T01:47:17.613Z,4.28
2019-03-15T01:50:05.555Z,4.29
2019-03-15T01:52:34.146Z,4.29
2019-03-15T01:55:22.073Z,4.31
2019-03-15T01:57:50.727Z,4.30
2019-03-15T02:00:19.422Z,4.25
2019-03-15T02:02:48.581Z,4.31
2019-03-15T02:05:18.500Z,4.32
2019-03-15T02:08:06.342Z,4.35
2019-03-15T02:10:35.024Z,4.37
2019-03-15T02:13:03.718Z,4.40
2019-03-15T02:15:51.679Z,4.44
2019-03-15T02:18:39.570Z,4.47
2019-03-15T02:21:08.144Z,4.49
2019-03-15T02:23:36.911Z,4.51
2019-03-15T02:26:24.864Z,4.52
2019-03-15T02:28:53.786Z,4.52
2019-03-15T02:31:22.394Z,4.53
2019-03-15T02:34:10.288Z,4.51
2019-03-15T02:37:18.744Z,4.46
2019-03-15T02:40:06.617Z,4.44
2019-03-15T02:42:35.453Z,4.47
2019-03-15T02:48:18.472Z,4.49
2019-03-15T02:51:06.413Z,4.52
2019-03-15T02:53:35.157Z,4.60
2019-03-15T02:56:03.789Z,4.59
2019-03-15T02:58:32.448Z,4.57
2019-03-15T03:01:01.143Z,4.58
2019-03-15T03:03:29.907Z,4.52
2019-03-15T03:06:17.796Z,4.52
2019-03-15T03:08:46.436Z,4.55
2019-03-15T03:11:34.230Z,4.54
2019-03-15T03:14:22.036Z,4.54
2019-03-15T03:17:09.875Z,4.50
2019-03-15T03:19:38.516Z,4.53
2019-03-15T03:22:26.333Z,4.56
2019-03-15T03:24:54.891Z,4.54
2019-03-15T03:27:23.565Z,4.61
2019-03-15T03:29:52.249Z,4.65
2019-03-15T03:32:42.658Z,4.65
2019-03-15T03:35:29.639Z,4.68
2019-03-15T03:37:58.296Z,4.70
2019-03-15T03:40:46.329Z,4.68
2019-03-15T03:43:34.045Z,4.69
2019-03-15T03:46:02.741Z,4.73
2019-03-15T03:48:31.445Z,4.75
2019-03-15T03:51:00.361Z,4.79
2019-03-15T03:53:30.467Z,4.75
2019-03-15T03:56:19.747Z,4.82
2019-03-15T03:58:48.441Z,4.82
2019-03-15T04:04:06.345Z,4.83
2019-03-15T04:07:14.826Z,4.90
2019-03-15T04:09:43.475Z,4.86
2019-03-15T04:12:31.359Z,4.81
2019-03-15T04:15:19.274Z,4.81
2019-03-15T04:17:47.976Z,4.77
2019-03-15T04:20:35.866Z,4.77
2019-03-15T04:25:40.524Z,4.78
2019-03-15T04:28:09.310Z,4.69
2019-03-15T04:30:38.023Z,4.70
2019-03-15T04:33:25.884Z,4.68
2019-03-15T04:35:54.562Z,4.68
2019-03-15T04:38:42.431Z,4.70
2019-03-15T04:41:11.084Z,4.70
2019-03-15T04:43:58.973Z,4.73
2019-03-15T04:46:46.867Z,4.74
2019-03-15T04:49:34.584Z,4.70
2019-03-15T04:52:22.462Z,4.72
2019-03-15T04:54:51.160Z,4.74
2019-03-15T04:57:38.863Z,4.69
2019-03-15T05:00:47.332Z,4.67
2019-03-15T05:03:16.092Z,4.68
2019-03-15T05:05:44.736Z,4.63
2019-03-15T05:08:13.442Z,4.64
2019-03-15T05:10:42.214Z,4.68
2019-03-15T05:13:10.866Z,4.67
2019-03-15T05:15:39.484Z,4.71
2019-03-15T05:18:08.135Z,4.66
2019-03-15T05:20:36.824Z,4.67
2019-03-15T05:23:05.588Z,4.62
2019-03-15T05:25:34.307Z,4.61
2019-03-15T05:28:03.028Z,4.55
2019-03-15T05:30:31.688Z,4.56
2019-03-15T05:33:19.721Z,4.54
2019-03-15T05:35:48.408Z,4.50
2019-03-15T05:38:17.095Z,4.49
2019-03-15T05:40:45.784Z,4.60
2019-03-15T05:43:33.651Z,4.55
2019-03-15T05:46:02.349Z,4.62
2019-03-15T05:48:31.068Z,4.64
2019-03-15T05:50:59.807Z,4.70
2019-03-15T05:53:28.497Z,4.76
2019-03-15T05:58:45.018Z,4.82
2019-03-15T06:01:13.710Z,4.86
2019-03-15T06:04:01.503Z,4.89
2019-03-15T06:06:49.454Z,4.91
2019-03-15T06:09:18.110Z,4.90
2019-03-15T06:11:46.819Z,4.86
2019-03-15T06:14:15.524Z,4.91
2019-03-15T06:16:44.235Z,4.87
2019-03-15T06:19:32.127Z,4.94
2019-03-15T06:22:20.087Z,4.96
2019-03-15T06:24:49.169Z,4.93
2019-03-15T06:30:30.366Z,4.99
2019-03-15T06:32:59.008Z,5.04
2019-03-15T06:35:46.916Z,5.04
2019-03-15T06:38:15.577Z,5.08
2019-03-15T06:40:44.261Z,5.01
2019-03-15T06:43:13.528Z,5.09
2019-03-15T06:45:43.332Z,5.11
2019-03-15T06:48:11.980Z,5.13
2019-03-15T06:50:40.710Z,5.13
2019-03-15T06:53:09.379Z,5.19
2019-03-15T06:55:38.029Z,5.17
2019-03-15T06:58:25.898Z,5.25
2019-03-15T07:00:55.032Z,5.18
2019-03-15T07:03:24.976Z,5.15
2019-03-15T07:06:12.935Z,5.15
2019-03-15T07:08:41.625Z,5.14
2019-03-15T07:11:29.516Z,5.20
2019-03-15T07:14:17.366Z,5.22
2019-03-15T07:16:45.981Z,5.15
2019-03-15T07:19:25.758Z,5.16
2019-03-15T07:22:04.231Z,5.14
2019-03-15T07:24:32.893Z,5.14
2019-03-15T07:27:21.867Z,5.14
2019-03-15T07:29:51.130Z,5.14
2019-03-15T07:32:19.797Z,5.18
2019-03-15T07:34:48.414Z,5.15
2019-03-15T07:37:17.076Z,5.12
2019-03-15T07:39:45.643Z,5.10
2019-03-15T07:42:14.305Z,5.11
2019-03-15T07:44:42.942Z,5.08
2019-03-15T07:47:11.639Z,5.12
2019-03-15T07:49:40.221Z,5.04
2019-03-15T07:52:08.902Z,5.06
2019-03-15T07:54:38.583Z,4.97
2019-03-15T07:57:07.968Z,4.98
2019-03-15T07:59:55.774Z,4.96
2019-03-15T08:02:24.311Z,4.96
2019-03-15T08:04:52.951Z,4.95
2019-03-15T08:07:21.659Z,4.95
2019-03-15T08:09:50.915Z,4.96
2019-03-15T08:12:20.590Z,4.97
2019-03-15T08:15:08.477Z,5.04
2019-03-15T08:17:37.118Z,4.99
2019-03-15T08:20:45.592Z,5.04
2019-03-15T08:23:14.266Z,5.07
2019-03-15T08:25:42.886Z,5.03
2019-03-15T08:28:30.793Z,5.07
2019-03-15T08:30:59.487Z,5.08
2019-03-15T08:33:28.140Z,5.12
2019-03-15T08:35:56.841Z,5.12
2019-03-15T08:38:25.528Z,5.22
2019-03-15T08:41:13.394Z,5.28
2019-03-15T08:43:42.057Z,5.30
2019-03-15T08:46:10.607Z,5.40
2019-03-15T08:48:39.303Z,5.35
2019-03-15T08:51:10.393Z,5.40
2019-03-15T08:53:38.301Z,5.33
2019-03-15T08:58:56.196Z,5.36
2019-03-15T09:01:43.963Z,5.47
2019-03-15T09:04:12.638Z,5.50
2019-03-15T09:06:41.398Z,5.54
2019-03-15T09:09:10.080Z,5.56
2019-03-15T09:11:38.749Z,5.70
2019-03-15T09:14:07.383Z,5.70
2019-03-15T09:16:55.347Z,5.68
2019-03-15T09:19:43.151Z,5.78
2019-03-15T09:22:11.734Z,5.79
2019-03-15T09:24:59.698Z,5.89
2019-03-15T09:27:28.340Z,5.83
2019-03-15T09:29:57.042Z,5.78
2019-03-15T09:32:25.712Z,5.84
2019-03-15T09:34:55.730Z,5.93
2019-03-15T09:37:24.788Z,6.06
2019-03-15T09:39:53.485Z,6.10
2019-03-15T09:42:21.982Z,5.92
2019-03-15T09:44:50.589Z,5.98
2019-03-15T09:47:19.283Z,6.08
2019-03-15T09:52:40.926Z,6.12
2019-03-15T09:55:49.343Z,6.23
2019-03-15T09:58:18.045Z,6.12
2019-03-15T10:00:46.749Z,6.15
2019-03-15T10:03:34.537Z,6.18
2019-03-15T10:06:14.362Z,6.25
2019-03-15T10:08:33.644Z,6.21
2019-03-15T10:11:02.315Z,6.21
2019-03-15T10:13:31.022Z,6.33
2019-03-15T10:16:18.926Z,6.32
2019-03-15T10:18:50.347Z,6.41
2019-03-15T10:21:17.925Z,6.40
2019-03-15T10:23:46.572Z,6.49
2019-03-15T10:26:34.459Z,6.45
2019-03-15T10:29:14.599Z,6.50
2019-03-15T10:34:12.416Z,6.72
2019-03-15T10:36:41.131Z,6.74
2019-03-15T10:39:09.844Z,6.84
2019-03-15T10:41:38.530Z,6.95
2019-03-15T10:44:07.147Z,6.94
2019-03-15T10:46:35.842Z,7.03
2019-03-15T10:49:23.666Z,7.10
2019-03-15T10:51:52.374Z,7.16
2019-03-15T10:54:21.015Z,7.26
2019-03-15T10:56:49.694Z,7.23
2019-03-15T10:59:18.398Z,7.28
2019-03-15T11:02:06.401Z,7.34
2019-03-15T11:04:35.041Z,7.42
2019-03-15T11:07:03.752Z,7.37
2019-03-15T11:09:32.326Z,7.43
2019-03-15T11:12:00.981Z,7.51
2019-03-15T11:14:29.734Z,7.46
2019-03-15T11:16:58.394Z,7.43
2019-03-15T11:19:27.010Z,7.56
2019-03-15T11:21:55.814Z,7.55
2019-03-15T11:24:26.158Z,7.58
2019-03-15T11:26:54.726Z,7.63
2019-03-15T11:29:23.443Z,7.74
2019-03-15T11:31:52.096Z,7.75
2019-03-15T11:34:20.733Z,7.73
2019-03-15T11:36:58.359Z,7.80
2019-03-15T11:39:19.784Z,7.90
2019-03-15T11:42:07.554Z,7.89
2019-03-15T11:44:36.240Z,7.91
2019-03-15T11:47:04.977Z,7.90
2019-03-15T11:49:52.670Z,7.98
2019-03-15T11:52:40.643Z,8.09
2019-03-15T11:55:49.130Z,8.03
2019-03-15T11:58:17.789Z,8.16
2019-03-15T12:00:46.506Z,8.09
2019-03-15T12:03:15.174Z,8.11
2019-03-15T12:05:43.846Z,8.06
2019-03-15T12:08:12.544Z,8.10
2019-03-15T12:11:00.304Z,8.09
2019-03-15T12:13:48.280Z,8.13
2019-03-15T12:16:16.915Z,8.13
2019-03-15T12:18:45.597Z,8.16
2019-03-15T12:21:14.317Z,8.25
2019-03-15T12:26:49.878Z,8.30
2019-03-15T12:29:37.774Z,8.33
2019-03-15T12:32:06.467Z,8.38
2019-03-15T12:34:54.286Z,8.44
2019-03-15T12:37:42.135Z,8.42
2019-03-15T12:40:50.619Z,8.42
2019-03-15T12:43:38.557Z,8.52
2019-03-15T12:46:07.212Z,8.53
2019-03-15T12:48:35.833Z,8.59
2019-03-15T12:51:04.510Z,8.60
2019-03-15T12:53:33.170Z,8.62
2019-03-15T12:56:01.849Z,8.65
2019-03-15T12:58:30.572Z,8.64
2019-03-15T13:01:18.418Z,8.69
2019-03-15T13:08:55.448Z,8.76
2019-03-15T13:11:24.067Z,8.80
2019-03-15T13:13:52.761Z,8.88
2019-03-15T13:16:40.621Z,8.87
2019-03-15T13:19:09.192Z,8.88
2019-03-15T13:21:57.016Z,8.93
2019-03-15T13:24:25.667Z,8.92
2019-03-15T13:27:06.579Z,8.99
2019-03-15T13:29:24.618Z,9.00
2019-03-15T13:31:53.261Z,9.01
2019-03-15T13:34:41.155Z,9.01
2019-03-15T13:37:09.755Z,9.04
2019-03-15T13:39:38.393Z,9.10
2019-03-15T13:42:07.240Z,9.07
2019-03-15T13:44:35.927Z,9.11
2019-03-15T13:47:04.595Z,9.12
2019-03-15T13:49:52.579Z,9.17
2019-03-15T13:52:21.280Z,9.20
2019-03-15T13:54:49.975Z,9.19
2019-03-15T13:57:37.757Z,9.16
2019-03-15T14:00:46.245Z,9.20
2019-03-15T14:03:14.906Z,9.22
2019-03-15T14:05:43.598Z,9.20
2019-03-15T14:08:12.379Z,9.22
2019-03-15T14:10:49.351Z,9.21
2019-03-15T14:13:12.140Z,9.20
2019-03-15T14:15:41.830Z,9.18
2019-03-15T14:18:10.468Z,9.23
2019-03-15T14:20:39.166Z,9.27
2019-03-15T14:23:07.913Z,9.29
2019-03-15T14:25:36.601Z,9.28
2019-03-15T14:28:05.275Z,9.31
2019-03-15T14:30:33.975Z,9.31
2019-03-15T14:33:23.264Z,9.29
2019-03-15T14:35:51.938Z,9.29
2019-03-15T14:38:20.808Z,9.34
2019-03-15T14:40:50.956Z,9.33
2019-03-15T14:43:19.706Z,9.35
2019-03-15T14:45:48.682Z,9.34
2019-03-15T14:48:18.891Z,9.33
2019-03-15T14:50:47.590Z,9.35
2019-03-15T14:53:16.237Z,9.33
2019-03-15T14:55:44.954Z,9.35
2019-03-15T14:58:13.537Z,9.33
2019-03-15T15:00:42.460Z,9.37
2019-03-15T15:03:11.152Z,9.38
2019-03-15T15:05:39.825Z,9.37
2019-03-15T15:08:08.464Z,9.36
2019-03-15T15:10:37.116Z,9.38
2019-03-15T15:13:05.822Z,9.37
2019-03-15T15:15:34.486Z,9.35
2019-03-15T15:18:03.265Z,9.37
2019-03-15T15:20:32.039Z,9.38
2019-03-15T15:23:00.667Z,9.38
2019-03-15T15:25:29.388Z,9.37
2019-03-15T15:28:04.544Z,9.40
2019-03-15T15:30:28.399Z,9.38
2019-03-15T15:32:57.114Z,9.41
2019-03-15T15:35:25.849Z,9.45
2019-03-15T15:37:54.627Z,9.43
2019-03-15T15:40:23.277Z,9.40
2019-03-15T15:42:51.980Z,9.44
2019-03-15T15:45:20.821Z,9.45
2019-03-15T15:47:49.660Z,9.47
2019-03-15T15:50:39.657Z,9.45
2019-03-15T15:53:11.042Z,9.45
2019-03-15T15:55:59.293Z,9.49
2019-03-15T15:58:28.820Z,9.48
2019-03-15T16:00:57.516Z,9.48
2019-03-15T16:03:26.604Z,9.48
2019-03-15T16:06:14.544Z,9.54
2019-03-15T16:08:43.249Z,9.50
2019-03-15T16:11:12.265Z,9.49
2019-03-15T16:13:41.507Z,9.51
2019-03-15T16:21:53.702Z,9.49
2019-03-15T16:24:24.127Z,9.53
2019-03-15T16:27:12.363Z,9.52
2019-03-15T16:29:41.544Z,9.54
2019-03-15T16:32:10.296Z,9.48
2019-03-15T16:34:39.015Z,9.52
2019-03-15T16:37:07.960Z,9.52
2019-03-15T16:39:56.561Z,9.54
2019-03-15T16:42:26.360Z,9.56
2019-03-15T16:44:55.043Z,9.57
2019-03-15T16:47:23.716Z,9.59
2019-03-15T16:49:52.416Z,9.58
2019-03-15T16:52:21.177Z,9.60
2019-03-15T16:54:49.845Z,9.57
2019-03-15T16:57:18.524Z,9.60
2019-03-15T16:59:47.233Z,9.65
2019-03-15T17:02:15.923Z,9.65
2019-03-15T17:04:51.713Z,9.60
2019-03-15T17:07:20.483Z,9.65
2019-03-15T17:09:49.084Z,9.65
2019-03-15T17:12:17.742Z,9.66
2019-03-15T17:14:46.445Z,9.69
2019-03-15T17:17:15.140Z,9.69
2019-03-15T17:19:43.960Z,9.66
2019-03-15T17:22:12.790Z,9.65
2019-03-15T17:25:00.727Z,9.62
2019-03-15T17:27:48.728Z,9.58
2019-03-15T17:31:09.234Z,9.56
2019-03-15T17:38:49.298Z,9.48
2019-03-15T17:41:17.996Z,9.48
2019-03-15T17:46:40.301Z,9.48
2019-03-15T17:49:28.220Z,9.47
2019-03-15T17:52:16.183Z,9.42
2019-03-15T17:55:04.341Z,9.41
2019-03-15T17:57:33.085Z,9.44
2019-03-15T18:00:41.685Z,9.45
2019-03-15T18:03:20.573Z,9.38
2019-03-15T18:06:00.265Z,9.41
2019-03-15T18:08:29.384Z,9.35
2019-03-15T18:11:17.472Z,9.34
2019-03-15T18:14:26.155Z,9.33
2019-03-15T18:16:55.062Z,9.33
2019-03-15T18:22:36.361Z,9.34
2019-03-15T18:25:25.835Z,9.32
2019-03-15T18:28:13.847Z,9.27
2019-03-15T18:31:22.460Z,9.29
2019-03-15T18:33:51.464Z,9.26
2019-03-15T18:36:42.881Z,9.27
2019-03-15T18:39:10.603Z,9.19
2019-03-15T18:45:27.585Z,9.23
2019-03-15T18:47:56.433Z,9.24
2019-03-15T18:50:45.245Z,9.23
2019-03-15T18:53:16.377Z,9.25
2019-03-15T18:58:40.398Z,9.27
2019-03-15T19:07:00.770Z,9.26
2019-03-15T19:09:48.890Z,9.31
2019-03-15T19:12:36.980Z,9.33
2019-03-15T19:18:00.684Z,9.28
2019-03-15T19:23:36.716Z,9.30
2019-03-15T19:26:28.874Z,9.31
2019-03-15T19:29:16.251Z,9.29
2019-03-15T19:32:04.500Z,9.28
2019-03-15T19:34:53.112Z,9.27
2019-03-15T19:37:22.024Z,9.28
2019-03-15T19:39:51.780Z,9.27
2019-03-15T19:42:20.704Z,9.30
2019-03-15T19:44:49.981Z,9.26
2019-03-15T19:47:18.878Z,9.27
2019-03-15T19:49:47.738Z,9.27
2019-03-15T19:52:35.931Z,9.21
2019-03-15T19:55:44.598Z,9.24
2019-03-15T19:58:32.721Z,9.27
2019-03-15T20:01:01.697Z,9.24
2019-03-15T20:03:49.805Z,9.23
2019-03-15T20:06:37.965Z,9.23
2019-03-15T20:15:30.679Z,9.29
2019-03-15T20:17:59.636Z,9.28
2019-03-15T20:23:35.559Z,9.24
2019-03-15T20:29:32.405Z,9.25
2019-03-15T20:32:20.532Z,9.29
2019-03-15T20:34:50.076Z,9.26
2019-03-15T20:37:19.087Z,9.25
2019-03-15T20:40:28.098Z,9.21
2019-03-15T20:43:18.430Z,9.16
2019-03-15T20:46:08.902Z,9.13
2019-03-15T20:51:33.024Z,9.23
2019-03-15T20:56:51.247Z,9.17
2019-03-15T20:59:20.283Z,9.18
2019-03-15T21:04:38.433Z,9.18
2019-03-15T21:07:07.318Z,9.15
2019-03-15T21:09:36.429Z,9.14
2019-03-15T21:12:05.400Z,9.16
2019-03-15T21:14:34.471Z,9.14
2019-03-15T21:17:22.693Z,9.12
2019-03-15T21:20:30.130Z,9.14
2019-03-15T21:23:18.753Z,9.16
2019-03-15T21:28:42.425Z,9.11
2019-03-15T21:34:18.684Z,9.12
2019-03-15T21:39:54.533Z,9.12
2019-03-15T21:42:42.812Z,9.13
2019-03-15T21:45:30.940Z,9.16
2019-03-15T21:48:19.248Z,9.11
2019-03-15T21:54:34.088Z,9.11
2019-03-15T21:57:03.166Z,9.07
2019-03-15T21:59:51.478Z,9.08
2019-03-15T22:02:40.071Z,9.08
2019-03-15T22:05:29.676Z,9.07
2019-03-15T22:07:58.803Z,9.08
2019-03-15T22:13:22.162Z,9.09
2019-03-15T22:18:59.622Z,9.11
2019-03-15T22:21:28.653Z,9.09
2019-03-15T22:23:57.829Z,9.11
2019-03-15T22:26:45.813Z,9.10
2019-03-15T22:29:14.707Z,9.10
2019-03-15T22:31:43.667Z,9.05
2019-03-15T22:40:45.025Z,9.03
2019-03-15T22:43:15.302Z,9.02
2019-03-15T22:46:03.362Z,9.05
2019-03-15T22:48:32.107Z,9.02
2019-03-15T22:51:00.742Z,9.06
2019-03-15T22:53:29.403Z,9.05
2019-03-15T22:56:17.334Z,9.04
2019-03-15T22:58:45.959Z,9.05
2019-03-15T23:01:14.785Z,9.05
2019-03-15T23:04:02.745Z,9.10
2019-03-15T23:06:31.521Z,9.11
2019-03-15T23:09:19.484Z,9.12
2019-03-15T23:12:07.314Z,9.13
2019-03-15T23:14:36.061Z,9.12
2019-03-15T23:17:06.555Z,9.10
2019-03-15T23:22:28.692Z,9.11
2019-03-15T23:25:37.376Z,9.11
2019-03-15T23:28:25.349Z,9.09
2019-03-15T23:30:54.299Z,9.11
2019-03-15T23:33:42.244Z,9.13
2019-03-15T23:36:23.550Z,9.11
2019-03-15T23:39:11.453Z,9.08
2019-03-15T23:41:59.344Z,9.10
2019-03-15T23:44:27.992Z,9.03
2019-03-15T23:46:56.746Z,9.02
2019-03-15T23:49:44.696Z,9.02
2019-03-15T23:52:13.517Z,9.01
2019-03-15T23:55:01.390Z,9.01
2019-03-15T23:57:30.211Z,9.00
